Time;durP1;ratioP1;P1;durP2;ratioP2;P2;SDS_P1;SDS_P2;PMS_P1;PMS_P2;Temp;Humidity;BMP_temperature;BMP_pressure;BME280_temperature;BME280_humidity;BME280_pressure;Samples;Min_cycle;Max_cycle;Signal;HPM_P1;HPM_P2
2023/01/22 00:01:19;;;;;;;31.77;13.57;;;;;;;;;;6303953;22;20032;-85
2023/01/22 00:03:45;;;;;;;33.72;12.85;;;;;;;;;;6304537;22;20131;-85
2023/01/22 00:06:13;;;;;;;31.33;14.50;;;;;;;;;;6304377;22;20062;-85
2023/01/22 00:08:39;;;;;;;30.70;12.38;;;;;;;;;;6304409;22;20032;-85
2023/01/22 00:11:05;;;;;;;32.22;13.43;;;;;;;;;;6304692;22;20107;-85
2023/01/22 00:13:32;;;;;;;32.13;12.88;;;;;;;;;;6304824;22;20085;-85
2023/01/22 00:16:01;;;;;;;33.38;14.30;;;;;;;;;;6304459;22;20570;-85
2023/01/22 00:18:28;;;;;;;34.42;14.00;;;;;;;;;;6303585;22;20027;-85
2023/01/22 00:20:55;;;;;;;37.83;14.05;;;;;;;;;;6304677;22;20024;-85
2023/01/22 00:23:22;;;;;;;35.35;13.93;;;;;;;;;;6304547;22;20031;-85
2023/01/22 00:25:48;;;;;;;32.35;13.88;;;;;;;;;;6304566;22;20024;-85
2023/01/22 00:28:15;;;;;;;32.65;14.48;;;;;;;;;;6301959;22;20094;-85
2023/01/22 00:30:42;;;;;;;35.40;14.20;;;;;;;;;;6304313;22;20043;-85
2023/01/22 00:33:10;;;;;;;32.20;13.52;;;;;;;;;;6304859;22;20020;-85
2023/01/22 00:35:36;;;;;;;35.80;14.73;;;;;;;;;;6304851;22;20020;-86
2023/01/22 00:38:03;;;;;;;31.08;13.93;;;;;;;;;;6277267;22;20027;-85
2023/01/22 00:40:29;;;;;;;31.55;13.73;;;;;;;;;;6304487;22;20491;-85
2023/01/22 00:42:55;;;;;;;31.85;13.13;;;;;;;;;;6304384;22;20228;-85
2023/01/22 00:45:22;;;;;;;29.90;12.75;;;;;;;;;;6304347;22;20073;-86
2023/01/22 00:47:48;;;;;;;26.33;12.30;;;;;;;;;;6303880;22;20031;-85
2023/01/22 00:50:15;;;;;;;27.80;12.60;;;;;;;;;;6277541;22;20102;-85
2023/01/22 00:52:41;;;;;;;28.30;12.30;;;;;;;;;;6304087;22;20034;-85
2023/01/22 00:55:08;;;;;;;28.85;12.95;;;;;;;;;;6304864;22;20051;-85
2023/01/22 00:57:34;;;;;;;30.98;13.10;;;;;;;;;;6303832;22;20019;-85
2023/01/22 01:00:01;;;;;;;27.65;12.43;;;;;;;;;;6304171;22;20031;-85
2023/01/22 01:02:27;;;;;;;23.83;12.20;;;;;;;;;;6304246;22;20059;-85
2023/01/22 01:04:55;;;;;;;25.33;11.23;;;;;;;;;;6303828;22;20035;-85
2023/01/22 01:07:22;;;;;;;24.02;12.13;;;;;;;;;;6304158;22;20028;-85
2023/01/22 01:09:49;;;;;;;28.98;12.02;;;;;;;;;;6276277;22;20023;-85
2023/01/22 01:12:15;;;;;;;28.70;10.95;;;;;;;;;;6304162;22;20457;-85
2023/01/22 01:14:42;;;;;;;24.38;11.63;;;;;;;;;;6303711;22;20027;-85
2023/01/22 01:17:08;;;;;;;28.17;11.38;;;;;;;;;;6303130;22;20468;-85
2023/01/22 01:19:34;;;;;;;24.40;10.68;;;;;;;;;;6304209;22;20082;-86
2023/01/22 01:22:05;;;;;;;22.08;10.23;;;;;;;;;;6276824;22;20029;-85
2023/01/22 01:24:31;;;;;;;24.75;10.48;;;;;;;;;;6303782;22;20034;-86
2023/01/22 01:26:58;;;;;;;24.15;10.30;;;;;;;;;;6303783;22;20055;-85
2023/01/22 01:29:25;;;;;;;25.00;11.13;;;;;;;;;;6303681;22;20023;-85
2023/01/22 01:31:53;;;;;;;29.90;12.25;;;;;;;;;;6303666;22;20139;-86
2023/01/22 01:34:19;;;;;;;26.10;11.07;;;;;;;;;;6303787;22;20028;-85
2023/01/22 01:36:46;;;;;;;24.08;11.23;;;;;;;;;;6303765;22;21133;-85
2023/01/22 01:39:15;;;;;;;24.58;10.80;;;;;;;;;;6303347;22;20038;-85
2023/01/22 01:41:42;;;;;;;23.67;10.60;;;;;;;;;;6301814;22;20110;-85
2023/01/22 01:44:11;;;;;;;24.33;10.40;;;;;;;;;;6303509;22;20028;-86
2023/01/22 01:46:40;;;;;;;23.80;10.70;;;;;;;;;;6303911;22;20058;-86
2023/01/22 01:49:10;;;;;;;23.25;10.60;;;;;;;;;;6301862;22;20025;-85
2023/01/22 01:51:36;;;;;;;29.55;11.43;;;;;;;;;;6301146;22;20152;-86
2023/01/22 01:54:03;;;;;;;22.90;10.20;;;;;;;;;;6303168;22;20728;-86
2023/01/22 01:56:33;;;;;;;23.85;9.93;;;;;;;;;;6303011;22;20030;-86
2023/01/22 01:59:04;;;;;;;22.95;10.73;;;;;;;;;;6303084;22;20491;-86
2023/01/22 02:01:34;;;;;;;20.88;9.52;;;;;;;;;;6303315;22;20030;-86
2023/01/22 02:04:00;;;;;;;22.17;10.45;;;;;;;;;;6303020;22;20470;-86
2023/01/22 02:06:27;;;;;;;20.48;9.38;;;;;;;;;;6302855;22;20059;-86
2023/01/22 02:08:54;;;;;;;22.95;9.98;;;;;;;;;;6275500;22;20030;-86
2023/01/22 02:11:21;;;;;;;21.15;9.15;;;;;;;;;;6301770;22;20023;-85
2023/01/22 02:13:58;;;;;;;20.80;9.27;;;;;;;;;;6301430;22;20053;-86
2023/01/22 02:16:25;;;;;;;22.52;9.85;;;;;;;;;;6303295;22;20030;-85
2023/01/22 02:18:51;;;;;;;23.88;10.00;;;;;;;;;;6302864;22;20502;-86
2023/01/22 02:21:35;;;;;;;22.42;9.82;;;;;;;;;;6301025;22;20114;-86
2023/01/22 02:24:08;;;;;;;19.77;9.57;;;;;;;;;;6301664;22;20087;-86
2023/01/22 02:26:36;;;;;;;18.30;9.07;;;;;;;;;;6302890;22;20027;-86
2023/01/22 02:29:04;;;;;;;24.15;9.57;;;;;;;;;;6302640;22;20085;-86
2023/01/22 02:31:34;;;;;;;19.33;8.18;;;;;;;;;;6301546;22;20023;-85
2023/01/22 02:34:00;;;;;;;20.42;9.15;;;;;;;;;;6302863;22;20027;-86
2023/01/22 02:36:34;;;;;;;22.65;9.50;;;;;;;;;;6303131;22;20027;-86
2023/01/22 02:39:01;;;;;;;18.45;8.32;;;;;;;;;;6302920;22;20023;-86
2023/01/22 02:41:27;;;;;;;21.15;8.48;;;;;;;;;;6302940;22;20436;-85
2023/01/22 02:43:54;;;;;;;17.08;8.20;;;;;;;;;;6303351;22;20044;-86
2023/01/22 02:46:24;;;;;;;19.52;9.00;;;;;;;;;;6302657;22;20027;-86
2023/01/22 02:48:51;;;;;;;20.75;8.38;;;;;;;;;;6302922;22;20530;-85
2023/01/22 02:51:17;;;;;;;19.02;8.85;;;;;;;;;;6301783;22;20019;-86
2023/01/22 02:53:44;;;;;;;20.73;8.70;;;;;;;;;;6303939;22;20027;-86
2023/01/22 02:56:10;;;;;;;20.20;8.25;;;;;;;;;;6303989;22;21037;-85
2023/01/22 02:58:37;;;;;;;18.15;8.02;;;;;;;;;;6303797;22;20031;-86
2023/01/22 03:01:19;;;;;;;19.80;8.85;;;;;;;;;;6303471;22;20687;-86
2023/01/22 03:03:46;;;;;;;18.60;7.93;;;;;;;;;;6304060;22;20055;-86
2023/01/22 03:06:20;;;;;;;19.63;8.75;;;;;;;;;;6304373;22;20738;-85
2023/01/22 03:08:52;;;;;;;18.42;8.10;;;;;;;;;;6302324;22;20028;-85
2023/01/22 03:11:18;;;;;;;16.63;7.88;;;;;;;;;;6303566;22;20023;-85
2023/01/22 03:22:03;;;;;;;22.50;8.82;;;;;;;;;;6304341;22;20106;-86
2023/01/22 03:24:30;;;;;;;19.58;8.45;;;;;;;;;;6304340;22;20026;-86
2023/01/22 03:26:56;;;;;;;23.67;8.48;;;;;;;;;;6303784;22;20512;-85
2023/01/22 03:29:23;;;;;;;18.85;7.78;;;;;;;;;;6304088;22;20469;-85
2023/01/22 03:31:49;;;;;;;19.38;8.93;;;;;;;;;;6303206;22;20030;-86
2023/01/22 03:34:16;;;;;;;22.48;9.23;;;;;;;;;;6303836;22;20115;-86
2023/01/22 03:36:43;;;;;;;21.67;8.90;;;;;;;;;;6303345;22;20024;-84
2023/01/22 03:39:10;;;;;;;20.45;8.43;;;;;;;;;;6302923;22;20051;-85
2023/01/22 03:41:36;;;;;;;19.38;8.23;;;;;;;;;;6302988;22;20035;-86
2023/01/22 03:44:03;;;;;;;18.27;7.95;;;;;;;;;;6301704;22;20440;-85
2023/01/22 03:46:33;;;;;;;16.95;7.88;;;;;;;;;;6303425;22;20886;-85
2023/01/22 03:49:00;;;;;;;19.05;7.80;;;;;;;;;;6302948;22;20024;-85
2023/01/22 03:51:26;;;;;;;17.40;7.95;;;;;;;;;;6304226;22;20027;-85
2023/01/22 03:53:53;;;;;;;15.80;7.47;;;;;;;;;;6303179;22;20759;-85
2023/01/22 03:56:22;;;;;;;20.98;7.85;;;;;;;;;;6303283;22;20902;-85
2023/01/22 03:58:49;;;;;;;23.45;8.25;;;;;;;;;;6302485;22;20027;-85
2023/01/22 04:01:19;;;;;;;16.73;7.75;;;;;;;;;;6302672;22;20311;-86
2023/01/22 04:03:46;;;;;;;18.65;8.35;;;;;;;;;;6303515;22;20107;-85
2023/01/22 04:06:12;;;;;;;20.95;8.48;;;;;;;;;;6303299;22;20024;-85
2023/01/22 04:08:40;;;;;;;18.48;8.15;;;;;;;;;;6300443;22;20484;-85
2023/01/22 04:11:07;;;;;;;17.95;8.32;;;;;;;;;;6303222;22;20078;-85
2023/01/22 04:13:35;;;;;;;20.02;8.20;;;;;;;;;;6303690;22;20027;-86
2023/01/22 04:16:02;;;;;;;23.20;8.90;;;;;;;;;;6301522;22;20023;-86
2023/01/22 04:18:28;;;;;;;23.20;9.82;;;;;;;;;;6302753;22;20480;-86
2023/01/22 04:20:54;;;;;;;20.92;8.77;;;;;;;;;;6303026;22;20055;-86
2023/01/22 04:23:21;;;;;;;24.85;8.10;;;;;;;;;;6303316;22;20023;-85
2023/01/22 04:25:47;;;;;;;21.35;9.25;;;;;;;;;;6303012;22;20024;-85
2023/01/22 04:28:14;;;;;;;20.63;8.73;;;;;;;;;;6302944;22;20032;-86
2023/01/22 04:30:41;;;;;;;23.23;9.15;;;;;;;;;;6302816;22;20101;-85
2023/01/22 04:33:08;;;;;;;23.55;9.48;;;;;;;;;;6303493;22;20084;-86
2023/01/22 04:35:35;;;;;;;22.05;9.43;;;;;;;;;;6304020;22;20338;-85
2023/01/22 04:38:02;;;;;;;19.67;8.68;;;;;;;;;;6303427;22;20459;-85
2023/01/22 04:40:28;;;;;;;22.30;8.98;;;;;;;;;;6303636;22;20035;-85
2023/01/22 04:42:54;;;;;;;22.45;9.73;;;;;;;;;;6276343;22;20490;-85
2023/01/22 04:45:21;;;;;;;21.15;8.73;;;;;;;;;;6301438;22;20139;-85
2023/01/22 04:47:47;;;;;;;27.90;9.85;;;;;;;;;;6303056;22;20491;-85
2023/01/22 04:50:15;;;;;;;25.70;9.68;;;;;;;;;;6302874;22;20027;-86
2023/01/22 04:52:42;;;;;;;26.10;9.88;;;;;;;;;;6302771;22;20758;-86
2023/01/22 04:55:09;;;;;;;20.73;9.00;;;;;;;;;;6303494;22;20028;-85
2023/01/22 04:57:35;;;;;;;25.70;9.80;;;;;;;;;;6302372;22;20147;-85
2023/01/22 05:00:03;;;;;;;19.23;8.80;;;;;;;;;;6300896;22;20552;-86
2023/01/22 05:02:29;;;;;;;23.08;9.38;;;;;;;;;;6303002;22;20495;-86
2023/01/22 05:04:56;;;;;;;22.60;9.18;;;;;;;;;;6303389;22;20046;-86
2023/01/22 05:07:22;;;;;;;21.02;9.15;;;;;;;;;;6300396;22;20461;-86
2023/01/22 05:09:48;;;;;;;24.58;9.38;;;;;;;;;;6302666;22;20502;-85
2023/01/22 05:12:15;;;;;;;26.98;9.05;;;;;;;;;;6303077;22;20020;-86
2023/01/22 05:14:41;;;;;;;20.70;8.60;;;;;;;;;;6302949;22;20028;-86
2023/01/22 05:17:07;;;;;;;17.15;7.68;;;;;;;;;;6303227;22;20377;-86
2023/01/22 05:19:34;;;;;;;19.95;8.82;;;;;;;;;;6302738;22;20127;-86
2023/01/22 05:22:00;;;;;;;21.17;8.50;;;;;;;;;;6300580;22;20439;-86
2023/01/22 05:24:27;;;;;;;17.30;7.53;;;;;;;;;;6303029;22;20028;-86
2023/01/22 05:26:53;;;;;;;19.80;8.20;;;;;;;;;;6302214;22;20028;-87
2023/01/22 05:29:24;;;;;;;21.77;8.40;;;;;;;;;;6302395;22;20079;-85
2023/01/22 05:31:53;;;;;;;18.10;8.05;;;;;;;;;;6302173;22;20110;-86
2023/01/22 05:34:20;;;;;;;19.92;9.02;;;;;;;;;;6302492;22;20027;-86
2023/01/22 05:36:46;;;;;;;21.20;8.18;;;;;;;;;;6300300;22;20550;-86
2023/01/22 05:39:13;;;;;;;16.73;8.13;;;;;;;;;;6303032;22;20024;-86
2023/01/22 05:41:40;;;;;;;20.63;8.38;;;;;;;;;;6302487;22;20020;-86
2023/01/22 05:44:09;;;;;;;16.02;7.20;;;;;;;;;;6301055;22;20024;-86
2023/01/22 05:46:35;;;;;;;18.10;7.47;;;;;;;;;;6301017;22;20131;-86
2023/01/22 05:49:02;;;;;;;18.92;8.80;;;;;;;;;;6302700;22;20027;-86
2023/01/22 05:51:28;;;;;;;17.70;7.85;;;;;;;;;;6302693;22;20054;-86
2023/01/22 05:53:57;;;;;;;19.90;8.48;;;;;;;;;;6302828;22;20028;-86
2023/01/22 05:56:23;;;;;;;22.15;8.27;;;;;;;;;;6300950;22;20028;-86
2023/01/22 05:58:50;;;;;;;21.35;9.27;;;;;;;;;;6302516;22;20024;-86
2023/01/22 06:01:16;;;;;;;23.35;9.18;;;;;;;;;;6301575;22;20024;-86
2023/01/22 06:03:43;;;;;;;18.42;8.73;;;;;;;;;;6302900;22;20051;-87
2023/01/22 06:06:11;;;;;;;17.77;7.85;;;;;;;;;;6300341;22;20109;-87
2023/01/22 06:08:37;;;;;;;17.98;8.18;;;;;;;;;;6301851;22;20028;-86
2023/01/22 06:11:06;;;;;;;19.65;8.85;;;;;;;;;;6302380;22;20051;-87
2023/01/22 06:13:32;;;;;;;16.83;7.95;;;;;;;;;;6300972;22;20472;-87
2023/01/22 06:15:59;;;;;;;19.70;8.10;;;;;;;;;;6302404;22;20024;-86
2023/01/22 06:18:25;;;;;;;18.25;8.18;;;;;;;;;;6302153;22;20028;-86
2023/01/22 06:20:56;;;;;;;21.05;8.90;;;;;;;;;;6302312;22;20063;-86
2023/01/22 06:23:24;;;;;;;19.88;8.60;;;;;;;;;;6302785;22;20058;-87
2023/01/22 06:25:52;;;;;;;20.77;8.13;;;;;;;;;;6301247;22;20034;-86
2023/01/22 06:28:18;;;;;;;23.02;8.60;;;;;;;;;;6300229;22;20046;-86
2023/01/22 06:30:45;;;;;;;18.85;7.53;;;;;;;;;;6301846;22;20015;-84
2023/01/22 06:33:11;;;;;;;18.73;8.32;;;;;;;;;;6304252;22;20032;-89
2023/01/22 06:35:38;;;;;;;25.85;9.02;;;;;;;;;;6303781;22;20034;-88
2023/01/22 06:38:04;;;;;;;21.23;8.48;;;;;;;;;;6302779;22;20111;-89
2023/01/22 06:40:31;;;;;;;19.33;8.20;;;;;;;;;;6303529;22;20035;-87
2023/01/22 06:43:00;;;;;;;19.02;8.07;;;;;;;;;;6302490;22;20941;-87
2023/01/22 06:45:27;;;;;;;21.65;8.93;;;;;;;;;;6302297;22;20051;-88
2023/01/22 06:47:53;;;;;;;16.95;7.68;;;;;;;;;;6301972;22;20410;-88
2023/01/22 06:50:20;;;;;;;21.70;8.23;;;;;;;;;;6300021;22;20054;-88
2023/01/22 06:52:46;;;;;;;20.20;7.85;;;;;;;;;;6300231;22;20499;-87
2023/01/22 06:55:13;;;;;;;17.83;7.63;;;;;;;;;;6302531;22;20469;-87
2023/01/22 06:57:40;;;;;;;17.02;7.95;;;;;;;;;;6302217;22;20028;-86
2023/01/22 07:00:10;;;;;;;19.38;8.38;;;;;;;;;;6302341;22;20274;-88
2023/01/22 07:02:36;;;;;;;18.48;8.40;;;;;;;;;;6274512;22;20555;-88
2023/01/22 07:05:03;;;;;;;19.33;8.43;;;;;;;;;;6301177;22;20030;-89
2023/01/22 07:07:30;;;;;;;16.08;7.38;;;;;;;;;;6300293;22;20023;-88
2023/01/22 07:09:56;;;;;;;19.65;8.73;;;;;;;;;;6302248;22;20031;-89
2023/01/22 07:12:23;;;;;;;19.75;8.27;;;;;;;;;;6301668;22;20027;-87
2023/01/22 07:14:49;;;;;;;20.38;7.28;;;;;;;;;;6275464;22;20027;-89
2023/01/22 07:17:18;;;;;;;25.90;8.25;;;;;;;;;;6302278;22;20745;-90
2023/01/22 07:19:45;;;;;;;19.42;8.23;;;;;;;;;;6302929;22;20024;-89
2023/01/22 07:22:11;;;;;;;17.90;8.20;;;;;;;;;;6302385;22;20073;-90
2023/01/22 07:24:38;;;;;;;17.40;7.05;;;;;;;;;;6303059;22;20029;-89
2023/01/22 07:27:04;;;;;;;16.65;7.55;;;;;;;;;;6303366;22;20019;-88
2023/01/22 07:29:31;;;;;;;20.63;8.38;;;;;;;;;;6302575;22;20058;-88
2023/01/22 07:31:57;;;;;;;16.23;7.13;;;;;;;;;;6304602;22;20035;-90
2023/01/22 07:34:24;;;;;;;19.60;7.70;;;;;;;;;;6304482;22;20024;-86
2023/01/22 07:36:50;;;;;;;17.52;7.38;;;;;;;;;;6306024;22;20506;-88
2023/01/22 07:39:17;;;;;;;16.55;7.65;;;;;;;;;;6305750;22;20473;-88
2023/01/22 07:41:43;;;;;;;17.13;7.78;;;;;;;;;;6306794;22;20127;-87
2023/01/22 07:44:11;;;;;;;16.17;7.38;;;;;;;;;;6306914;22;20507;-88
2023/01/22 07:46:39;;;;;;;18.27;7.70;;;;;;;;;;6305565;22;20024;-88
2023/01/22 07:49:06;;;;;;;21.25;7.85;;;;;;;;;;6307563;22;20054;-89
2023/01/22 07:51:32;;;;;;;18.92;7.82;;;;;;;;;;6304901;22;20023;-88
2023/01/22 07:53:59;;;;;;;19.67;8.10;;;;;;;;;;6307562;22;20593;-87
2023/01/22 07:56:25;;;;;;;14.60;6.72;;;;;;;;;;6307545;22;20028;-87
2023/01/22 07:58:52;;;;;;;15.80;7.25;;;;;;;;;;6307818;22;20028;-87
2023/01/22 08:01:49;;;;;;;18.15;8.00;;;;;;;;;;6307124;22;20499;-88
2023/01/22 08:04:19;;;;;;;14.38;6.90;;;;;;;;;;6272245;22;20023;-89
2023/01/22 08:54:43;;;;;;;14.75;6.43;;;;;;;;;;6306703;22;20512;-89
2023/01/22 08:57:10;;;;;;;13.25;6.63;;;;;;;;;;6280307;22;20045;-89
2023/01/22 08:59:39;;;;;;;12.82;6.70;;;;;;;;;;6308850;22;20028;-89
2023/01/22 09:02:11;;;;;;;13.38;6.47;;;;;;;;;;6325089;22;20003;-89
2023/01/22 09:04:39;;;;;;;14.90;6.53;;;;;;;;;;6332626;22;20000;-89
2023/01/22 09:07:06;;;;;;;13.52;6.03;;;;;;;;;;6304926;22;20015;-91
2023/01/22 09:09:32;;;;;;;18.15;6.80;;;;;;;;;;6317609;22;20038;-90
2023/01/22 09:11:58;;;;;;;14.10;6.43;;;;;;;;;;6332818;22;19995;-90
2023/01/22 09:14:25;;;;;;;16.88;6.93;;;;;;;;;;6311577;22;21001;-89
2023/01/22 09:16:52;;;;;;;12.68;6.32;;;;;;;;;;6306860;22;20078;-89
2023/01/22 09:19:18;;;;;;;16.42;6.60;;;;;;;;;;6305461;22;20027;-89
2023/01/22 09:21:47;;;;;;;15.15;6.35;;;;;;;;;;6305440;22;20034;-89
2023/01/22 09:24:17;;;;;;;14.57;6.72;;;;;;;;;;6305052;22;20055;-88
2023/01/22 09:35:43;;;;;;;13.50;6.03;;;;;;;;;;6276544;22;20024;-90
2023/01/22 09:38:13;;;;;;;19.63;6.20;;;;;;;;;;6247122;22;20028;-88
2023/01/22 09:40:48;;;;;;;12.65;5.95;;;;;;;;;;6273447;22;20659;-89
2023/01/22 09:43:55;;;;;;;14.25;6.28;;;;;;;;;;6273308;22;20465;-88
2023/01/22 09:46:29;;;;;;;11.45;5.97;;;;;;;;;;6274397;22;20127;-89
2023/01/22 09:49:31;;;;;;;11.82;5.72;;;;;;;;;;6248298;22;20024;-89
2023/01/22 09:55:40;;;;;;;19.13;6.40;;;;;;;;;;6275010;22;20012;-89
2023/01/22 09:58:15;;;;;;;15.07;6.53;;;;;;;;;;6274829;22;20142;-88
2023/01/22 10:52:42;;;;;;;;;;;;;;;;;;;;;
2023/01/22 11:16:28;;;;;;;17.90;6.75;;;;;;;;;;6183296;23;20018;-85
2023/01/22 11:30:14;;;;;;;13.63;6.55;;;;;;;;;;6333590;22;20016;-86
2023/01/22 11:32:47;;;;;;;12.82;5.82;;;;;;;;;;6338766;22;20025;-86
2023/01/22 11:35:25;;;;;;;13.77;6.38;;;;;;;;;;6340326;22;20026;-85
2023/01/22 11:38:03;;;;;;;15.05;6.55;;;;;;;;;;6339869;22;20019;-86
2023/01/22 11:40:55;;;;;;;13.02;6.32;;;;;;;;;;6339941;22;20026;-85
2023/01/22 11:43:54;;;;;;;10.70;5.82;;;;;;;;;;6280878;22;20614;-86
2023/01/22 11:46:29;;;;;;;10.55;5.45;;;;;;;;;;6233141;22;20454;-86
2023/01/22 11:48:57;;;;;;;11.85;6.05;;;;;;;;;;6336189;22;20541;-86
2023/01/22 11:51:46;;;;;;;10.38;5.80;;;;;;;;;;6339111;22;20019;-86
2023/01/22 11:54:25;;;;;;;14.32;6.03;;;;;;;;;;6338932;22;20058;-86
2023/01/22 11:57:22;;;;;;;11.88;5.85;;;;;;;;;;6338298;22;20103;-86
2023/01/22 12:00:20;;;;;;;12.70;5.95;;;;;;;;;;6311591;22;20011;-86
2023/01/22 12:02:55;;;;;;;12.68;5.68;;;;;;;;;;6338147;22;20555;-86
2023/01/22 12:05:28;;;;;;;14.00;5.78;;;;;;;;;;6338430;22;20031;-86
2023/01/22 12:07:58;;;;;;;11.77;5.93;;;;;;;;;;6338310;22;20019;-85
2023/01/22 12:10:43;;;;;;;12.75;6.68;;;;;;;;;;6311262;22;20507;-86
2023/01/22 12:13:16;;;;;;;13.60;6.70;;;;;;;;;;6311714;22;20055;-86
2023/01/22 12:16:07;;;;;;;;;;;;;;;;;;;;;
2023/01/22 12:21:55;;;;;;;13.93;7.05;;;;;;;;;;6172423;23;20029;-85
2023/01/22 12:25:01;;;;;;;15.20;6.85;;;;;;;;;;6316035;22;20827;-85
2023/01/22 12:27:32;;;;;;;13.60;6.35;;;;;;;;;;6338007;22;20027;-86
2023/01/22 12:30:11;;;;;;;12.85;6.00;;;;;;;;;;6338756;22;20026;-85
2023/01/22 12:32:40;;;;;;;12.15;6.18;;;;;;;;;;6338815;22;20026;-85
2023/01/22 12:35:14;;;;;;;12.40;6.47;;;;;;;;;;6339288;22;20820;-84
2023/01/22 12:37:46;;;;;;;12.32;6.13;;;;;;;;;;6337117;22;20023;-87
2023/01/22 12:40:43;;;;;;;14.25;7.05;;;;;;;;;;6309656;22;20019;-85
2023/01/22 12:43:30;;;;;;;13.70;7.07;;;;;;;;;;6310282;22;20058;-85
2023/01/22 12:46:21;;;;;;;16.33;7.05;;;;;;;;;;6319826;22;20019;-85
2023/01/22 12:49:04;;;;;;;14.13;7.32;;;;;;;;;;6335520;22;20035;-84
2023/01/22 12:51:37;;;;;;;15.52;7.40;;;;;;;;;;6308009;22;20066;-85
2023/01/22 12:54:20;;;;;;;14.02;6.72;;;;;;;;;;6335969;22;20023;-85
2023/01/22 12:56:47;;;;;;;14.23;6.78;;;;;;;;;;6333853;22;20027;-85
2023/01/22 12:59:28;;;;;;;13.07;6.95;;;;;;;;;;6336215;22;20030;-85
2023/01/22 13:01:59;;;;;;;16.48;7.30;;;;;;;;;;6336804;22;20608;-85
2023/01/22 13:04:27;;;;;;;15.32;7.18;;;;;;;;;;6336098;22;20027;-84
2023/01/22 13:07:02;;;;;;;18.20;7.40;;;;;;;;;;6335674;22;20070;-84
2023/01/22 13:09:33;;;;;;;14.55;6.50;;;;;;;;;;6334204;22;20494;-84
2023/01/22 13:15:31;;;;;;;14.43;6.85;;;;;;;;;;6310180;22;20102;-84
2023/01/22 13:18:02;;;;;;;13.75;7.45;;;;;;;;;;6333202;22;20803;-84
2023/01/22 13:20:35;;;;;;;12.25;6.50;;;;;;;;;;6334601;22;20031;-84
2023/01/22 13:23:03;;;;;;;15.23;7.47;;;;;;;;;;6335079;22;20011;-84
2023/01/22 13:25:31;;;;;;;16.67;7.28;;;;;;;;;;6336141;22;20027;-85
2023/01/22 13:27:58;;;;;;;12.95;6.53;;;;;;;;;;6335509;22;20019;-85
2023/01/22 13:30:26;;;;;;;15.88;7.05;;;;;;;;;;6336542;22;20795;-84
2023/01/22 13:33:02;;;;;;;14.15;7.50;;;;;;;;;;6335893;22;20106;-84
2023/01/22 13:35:28;;;;;;;16.45;8.13;;;;;;;;;;6336178;22;20016;-84
2023/01/22 13:37:55;;;;;;;14.82;7.38;;;;;;;;;;6336889;22;20507;-84
2023/01/22 13:40:22;;;;;;;16.48;7.75;;;;;;;;;;6308722;22;20099;-84
2023/01/22 13:42:50;;;;;;;12.25;6.53;;;;;;;;;;6334580;22;20758;-84
2023/01/22 13:45:28;;;;;;;16.63;8.07;;;;;;;;;;6335059;22;20409;-85
2023/01/22 13:47:57;;;;;;;13.85;7.15;;;;;;;;;;6337655;22;20854;-85
2023/01/22 13:50:25;;;;;;;14.88;7.18;;;;;;;;;;6341799;22;20019;-84
2023/01/22 13:52:52;;;;;;;16.65;8.38;;;;;;;;;;6357261;22;19991;-84
2023/01/22 13:55:20;;;;;;;17.48;8.18;;;;;;;;;;6357332;22;20614;-84
2023/01/22 13:57:48;;;;;;;16.55;7.70;;;;;;;;;;6331048;22;20089;-84
2023/01/22 14:00:24;;;;;;;14.57;7.75;;;;;;;;;;6347976;22;20027;-85
2023/01/22 14:02:50;;;;;;;16.33;7.53;;;;;;;;;;6315023;22;20027;-85
2023/01/22 14:05:19;;;;;;;14.63;7.30;;;;;;;;;;6336482;22;20680;-84
2023/01/22 14:07:45;;;;;;;18.00;7.45;;;;;;;;;;6353306;22;20025;-84
2023/01/22 14:10:22;;;;;;;16.98;7.90;;;;;;;;;;6335920;22;20785;-84
2023/01/22 14:13:01;;;;;;;18.42;8.23;;;;;;;;;;6335281;22;20016;-85
2023/01/22 14:15:28;;;;;;;14.10;8.10;;;;;;;;;;6335994;22;20106;-85
2023/01/22 14:18:12;;;;;;;17.13;8.32;;;;;;;;;;6336488;22;20519;-84
2023/01/22 14:20:39;;;;;;;16.00;8.30;;;;;;;;;;6333681;22;20415;-84
2023/01/22 14:23:06;;;;;;;15.00;8.07;;;;;;;;;;6335502;22;20049;-84
2023/01/22 14:25:46;;;;;;;18.67;8.32;;;;;;;;;;6335791;22;20037;-84
2023/01/22 14:28:12;;;;;;;15.00;8.40;;;;;;;;;;6335179;22;20023;-84
2023/01/22 14:30:39;;;;;;;17.17;8.00;;;;;;;;;;6335739;22;20496;-84
2023/01/22 14:33:05;;;;;;;16.70;8.23;;;;;;;;;;6335022;22;20334;-84
2023/01/22 14:35:32;;;;;;;17.02;7.75;;;;;;;;;;6335133;22;20530;-84
2023/01/22 14:37:58;;;;;;;16.35;8.18;;;;;;;;;;6335021;22;20019;-84
2023/01/22 14:40:25;;;;;;;16.00;8.13;;;;;;;;;;6335149;22;20023;-85
2023/01/22 14:42:52;;;;;;;16.05;7.55;;;;;;;;;;6335099;22;20030;-84
2023/01/22 14:45:20;;;;;;;18.17;8.05;;;;;;;;;;6307503;22;20511;-84
2023/01/22 14:47:51;;;;;;;19.50;7.90;;;;;;;;;;6336225;22;20023;-84
2023/01/22 14:50:18;;;;;;;18.75;8.00;;;;;;;;;;6336475;22;20440;-84
2023/01/22 14:52:49;;;;;;;20.17;8.50;;;;;;;;;;6333670;22;20494;-84
2023/01/22 14:55:16;;;;;;;17.90;8.60;;;;;;;;;;6335181;22;20019;-84
2023/01/22 14:57:42;;;;;;;15.68;8.38;;;;;;;;;;6336105;22;20111;-84
2023/01/22 15:00:10;;;;;;;16.88;8.43;;;;;;;;;;6336650;22;20875;-85
2023/01/22 15:02:38;;;;;;;18.10;9.10;;;;;;;;;;6336581;22;20023;-84
2023/01/22 15:05:05;;;;;;;21.23;9.68;;;;;;;;;;6336783;22;20962;-84
2023/01/22 15:07:34;;;;;;;20.35;8.60;;;;;;;;;;6336151;22;20023;-84
2023/01/22 15:10:01;;;;;;;20.13;8.65;;;;;;;;;;6336532;22;20030;-85
2023/01/22 15:12:27;;;;;;;20.63;9.43;;;;;;;;;;6336859;22;20055;-84
2023/01/22 15:14:54;;;;;;;18.95;7.90;;;;;;;;;;6336172;22;20448;-84
2023/01/22 15:17:20;;;;;;;21.33;9.77;;;;;;;;;;6336685;22;20027;-84
2023/01/22 15:19:47;;;;;;;17.98;9.02;;;;;;;;;;6336239;22;20031;-84
2023/01/22 15:22:14;;;;;;;21.02;9.25;;;;;;;;;;6334081;22;20102;-84
2023/01/22 15:24:40;;;;;;;24.35;10.25;;;;;;;;;;6309874;22;20031;-84
2023/01/22 15:27:06;;;;;;;20.48;9.40;;;;;;;;;;6335822;22;20019;-85
2023/01/22 15:29:33;;;;;;;18.15;8.73;;;;;;;;;;6335652;22;20039;-84
2023/01/22 15:32:02;;;;;;;17.63;8.43;;;;;;;;;;6335515;22;20031;-84
2023/01/22 15:34:28;;;;;;;22.17;9.23;;;;;;;;;;6336002;22;20472;-84
2023/01/22 15:36:54;;;;;;;16.92;8.80;;;;;;;;;;6336074;22;20058;-84
2023/01/22 15:39:21;;;;;;;19.13;9.18;;;;;;;;;;6336194;22;20027;-84
2023/01/22 15:41:47;;;;;;;18.48;9.10;;;;;;;;;;6336455;22;20034;-85
2023/01/22 15:44:13;;;;;;;21.08;9.20;;;;;;;;;;6337157;22;20018;-85
2023/01/22 15:46:40;;;;;;;19.17;8.98;;;;;;;;;;6338705;22;20025;-85
2023/01/22 15:49:11;;;;;;;19.13;9.55;;;;;;;;;;6335908;22;20030;-85
2023/01/22 15:51:38;;;;;;;20.90;9.82;;;;;;;;;;6336453;22;20534;-85
2023/01/22 15:54:05;;;;;;;18.05;9.48;;;;;;;;;;6337052;22;20023;-84
2023/01/22 15:56:40;;;;;;;19.48;9.10;;;;;;;;;;6336572;22;20029;-85
2023/01/22 15:59:09;;;;;;;26.95;9.70;;;;;;;;;;6336854;22;20082;-85
2023/01/22 16:01:37;;;;;;;21.90;9.70;;;;;;;;;;6335360;22;20019;-85
2023/01/22 16:04:03;;;;;;;20.63;9.77;;;;;;;;;;6337506;22;20019;-85
2023/01/22 16:06:55;;;;;;;24.40;9.70;;;;;;;;;;6337134;22;20025;-84
2023/01/22 16:09:21;;;;;;;20.33;9.77;;;;;;;;;;6337881;22;20019;-85
2023/01/22 16:11:48;;;;;;;22.92;10.45;;;;;;;;;;6336551;22;20033;-84
2023/01/22 16:14:15;;;;;;;20.88;9.90;;;;;;;;;;6337478;22;20081;-85
2023/01/22 16:16:44;;;;;;;20.65;10.48;;;;;;;;;;6335939;22;20535;-85
2023/01/22 16:19:12;;;;;;;25.38;10.15;;;;;;;;;;6336166;22;20038;-85
2023/01/22 16:21:39;;;;;;;21.77;9.95;;;;;;;;;;6335833;22;20498;-85
2023/01/22 16:24:06;;;;;;;22.48;9.68;;;;;;;;;;6335282;22;20029;-85
2023/01/22 16:26:40;;;;;;;19.98;9.38;;;;;;;;;;6308625;22;20019;-85
2023/01/22 16:29:07;;;;;;;20.58;9.05;;;;;;;;;;6306534;22;20030;-85
2023/01/22 16:31:36;;;;;;;22.88;9.02;;;;;;;;;;6334807;22;20046;-85
2023/01/22 16:34:12;;;;;;;21.08;10.07;;;;;;;;;;6335390;22;20513;-85
2023/01/22 16:36:44;;;;;;;23.58;10.13;;;;;;;;;;6335067;22;20484;-85
2023/01/22 16:39:20;;;;;;;19.85;10.88;;;;;;;;;;6309832;22;20488;-85
2023/01/22 16:41:48;;;;;;;24.55;10.57;;;;;;;;;;6336287;22;20015;-85
2023/01/22 16:44:38;;;;;;;24.95;11.52;;;;;;;;;;6337256;22;20019;-85
2023/01/22 16:47:07;;;;;;;22.45;10.90;;;;;;;;;;6297778;22;20371;-85
2023/01/22 16:49:34;;;;;;;21.75;10.77;;;;;;;;;;6308230;22;20019;-85
2023/01/22 16:52:02;;;;;;;25.15;10.18;;;;;;;;;;6335706;22;20107;-85
2023/01/22 16:54:48;;;;;;;20.75;9.95;;;;;;;;;;6337693;22;20020;-85
2023/01/22 16:57:14;;;;;;;23.33;10.13;;;;;;;;;;6309452;22;20015;-87
2023/01/22 16:59:44;;;;;;;25.23;10.32;;;;;;;;;;6309272;22;20027;-84
2023/01/22 17:02:14;;;;;;;20.65;9.88;;;;;;;;;;6308740;22;20098;-85
2023/01/22 17:04:41;;;;;;;24.02;10.50;;;;;;;;;;6336301;22;20098;-85
2023/01/22 17:07:08;;;;;;;28.38;11.90;;;;;;;;;;6336039;22;20035;-84
2023/01/22 17:09:40;;;;;;;30.70;13.52;;;;;;;;;;6333354;22;20562;-84
2023/01/22 17:12:09;;;;;;;35.25;15.32;;;;;;;;;;6336861;22;20095;-85
2023/01/22 17:14:36;;;;;;;36.95;16.05;;;;;;;;;;6337444;22;20023;-84
2023/01/22 17:17:04;;;;;;;31.23;13.20;;;;;;;;;;6309682;22;20046;-84
2023/01/22 17:19:32;;;;;;;31.90;12.80;;;;;;;;;;6333396;22;20797;-86
2023/01/22 17:21:58;;;;;;;26.08;11.30;;;;;;;;;;6334148;22;20019;-86